Time;durP1;ratioP1;P1;durP2;ratioP2;P2;SDS_P1;SDS_P2;PMS_P1;PMS_P2;Temp;Humidity;BMP_temperature;BMP_pressure;BME280_temperature;BME280_humidity;BME280_pressure;Samples;Min_cycle;Max_cycle;Signal;HPM_P1;HPM_P2
2022/05/05 00:00:00;;;;;;;7.22;4.40;;;13.00;98.40;;;;;;4973581;28;20201;-78
2022/05/05 00:02:30;;;;;;;9.95;4.63;;;12.90;98.10;;;;;;4972194;28;20197;-78
2022/05/05 00:04:58;;;;;;;6.47;4.55;;;12.90;98.30;;;;;;4971548;28;20233;-77
2022/05/05 00:14:27;;;;;;;8.13;5.68;;;12.80;98.00;;;;;;4924030;29;20206;-77
2022/05/05 00:16:57;;;;;;;8.30;5.35;;;12.70;98.60;;;;;;4947872;28;20213;-78
2022/05/05 00:19:27;;;;;;;6.60;4.28;;;12.90;98.30;;;;;;4957396;28;20170;-78
2022/05/05 00:21:54;;;;;;;8.80;4.78;;;13.00;98.10;;;;;;4973847;28;20192;-77
2022/05/05 00:24:22;;;;;;;7.78;4.65;;;12.90;98.50;;;;;;4953968;29;20218;-77
2022/05/05 00:26:50;;;;;;;8.48;4.30;;;12.90;98.70;;;;;;4986336;28;20683;-77
2022/05/05 00:29:18;;;;;;;6.68;4.57;;;12.90;99.40;;;;;;4974243;28;20211;-77
2022/05/05 00:31:46;;;;;;;10.05;4.63;;;12.90;99.90;;;;;;4972701;28;20518;-77
2022/05/05 00:34:14;;;;;;;5.65;4.40;;;12.90;99.90;;;;;;4965187;28;20227;-77
2022/05/05 00:36:43;;;;;;;7.72;5.05;;;12.90;99.90;;;;;;4964242;28;20204;-78
2022/05/05 00:39:12;;;;;;;8.38;5.32;;;12.90;99.90;;;;;;4964516;28;20560;-78
2022/05/05 00:41:42;;;;;;;6.90;5.57;;;12.60;99.90;;;;;;4972666;28;20201;-78
2022/05/05 00:44:11;;;;;;;8.52;5.32;;;12.30;99.90;;;;;;4969569;28;20233;-77
2022/05/05 00:46:38;;;;;;;7.85;5.43;;;12.30;99.90;;;;;;4970815;28;20201;-78
2022/05/05 00:49:07;;;;;;;9.10;5.60;;;12.50;99.90;;;;;;4962797;28;20193;-78
2022/05/05 00:51:34;;;;;;;8.88;4.95;;;12.60;99.90;;;;;;4972029;28;20209;-78
2022/05/05 00:54:04;;;;;;;6.95;5.30;;;12.80;99.90;;;;;;4972375;28;20209;-78
2022/05/05 00:56:32;;;;;;;6.78;4.65;;;12.80;99.90;;;;;;4973572;28;20201;-77
2022/05/05 00:59:01;;;;;;;8.85;5.32;;;12.90;99.90;;;;;;4971385;28;20705;-79
2022/05/05 01:01:31;;;;;;;9.38;5.40;;;12.80;99.90;;;;;;4979826;28;20197;-78
2022/05/05 01:03:59;;;;;;;6.93;4.82;;;12.70;99.90;;;;;;4969228;28;20572;-77
2022/05/05 01:06:26;;;;;;;6.97;5.13;;;12.80;99.90;;;;;;4973436;28;20201;-77
2022/05/05 01:08:54;;;;;;;8.77;5.35;;;12.70;99.90;;;;;;4973268;28;20197;-78
2022/05/05 01:11:23;;;;;;;6.85;5.15;;;12.70;99.90;;;;;;4969830;28;20196;-77
2022/05/05 01:13:50;;;;;;;6.45;5.03;;;12.80;99.90;;;;;;4984310;28;20213;-78
2022/05/05 01:16:18;;;;;;;7.35;4.85;;;12.60;99.90;;;;;;4972211;28;20212;-77
2022/05/05 01:18:45;;;;;;;8.25;5.50;;;12.30;99.90;;;;;;4972165;28;20207;-77
2022/05/05 01:21:13;;;;;;;8.43;5.68;;;12.10;99.90;;;;;;4971823;28;20197;-77
2022/05/05 01:23:44;;;;;;;6.57;5.50;;;12.10;99.90;;;;;;4969101;28;20236;-77
2022/05/05 01:28:57;;;;;;;7.72;6.13;;;12.00;99.90;;;;;;4958607;28;20189;-78
2022/05/05 01:31:24;;;;;;;8.35;5.30;;;12.30;99.90;;;;;;4973961;28;20197;-77
2022/05/05 01:33:52;;;;;;;7.07;5.63;;;12.50;99.90;;;;;;4960133;28;20210;-77
2022/05/05 01:36:19;;;;;;;10.45;5.60;;;12.60;99.90;;;;;;4977493;28;20675;-77
2022/05/05 01:38:48;;;;;;;8.75;5.43;;;12.70;99.90;;;;;;4969639;28;20204;-77
2022/05/05 01:41:16;;;;;;;8.30;5.60;;;12.70;99.90;;;;;;4967876;28;20200;-77
2022/05/05 01:43:45;;;;;;;7.97;5.63;;;12.40;99.90;;;;;;4973094;28;20221;-77
2022/05/05 01:46:14;;;;;;;7.65;5.30;;;12.30;99.90;;;;;;4986297;28;20570;-77
2022/05/05 01:48:41;;;;;;;9.73;5.15;;;12.20;99.90;;;;;;4962506;28;20197;-77
2022/05/05 01:51:09;;;;;;;11.35;5.65;;;12.10;99.90;;;;;;4974899;28;20213;-78
2022/05/05 01:53:38;;;;;;;9.32;5.40;;;12.30;99.90;;;;;;4976618;28;20221;-77
2022/05/05 01:56:11;;;;;;;7.25;5.10;;;12.50;99.90;;;;;;4975830;28;20197;-77
2022/05/05 01:58:41;;;;;;;6.85;5.30;;;12.60;99.90;;;;;;4975609;28;20204;-77
2022/05/05 02:01:10;;;;;;;9.00;5.93;;;12.70;99.90;;;;;;4973161;28;20209;-78
2022/05/05 02:03:38;;;;;;;6.70;5.53;;;12.80;99.90;;;;;;4963078;28;20245;-77
2022/05/05 02:06:06;;;;;;;7.40;5.15;;;12.80;99.90;;;;;;4973530;28;20213;-77
2022/05/05 02:08:34;;;;;;;7.70;5.05;;;12.90;99.90;;;;;;4975288;28;20197;-77
2022/05/05 02:11:02;;;;;;;10.60;5.72;;;12.90;99.90;;;;;;4973215;28;20197;-77
2022/05/05 02:13:31;;;;;;;5.65;4.78;;;12.70;99.90;;;;;;4968526;28;20220;-78
2022/05/05 02:15:58;;;;;;;7.45;5.03;;;12.70;99.90;;;;;;4977730;28;20650;-77
2022/05/05 02:18:26;;;;;;;5.28;4.82;;;12.70;99.90;;;;;;4962872;28;20225;-77
2022/05/05 02:20:53;;;;;;;8.82;5.10;;;12.50;99.90;;;;;;4965810;28;20201;-77
2022/05/05 02:23:21;;;;;;;7.32;5.22;;;12.40;99.90;;;;;;4979162;28;20213;-77
2022/05/05 02:25:48;;;;;;;8.50;5.57;;;12.20;99.90;;;;;;4979331;28;20216;-77
2022/05/05 02:28:16;;;;;;;8.23;5.60;;;11.90;99.90;;;;;;4977988;28;20208;-78
2022/05/05 02:30:45;;;;;;;6.07;4.93;;;12.10;99.90;;;;;;4977997;28;20205;-77
2022/05/05 02:33:12;;;;;;;6.77;5.20;;;12.30;99.90;;;;;;4976904;28;20224;-77
2022/05/05 02:35:40;;;;;;;6.93;5.20;;;12.40;99.90;;;;;;4973311;28;20197;-77
2022/05/05 02:40:52;;;;;;;6.25;4.75;;;12.60;99.90;;;;;;4969322;28;20194;-77
2022/05/05 02:43:20;;;;;;;8.30;5.38;;;12.60;99.90;;;;;;4976575;28;20225;-77
2022/05/05 02:45:50;;;;;;;6.88;5.40;;;12.60;99.90;;;;;;4978501;28;20221;-77
2022/05/05 02:48:18;;;;;;;6.38;5.20;;;12.60;99.90;;;;;;4969723;28;20193;-77
2022/05/05 02:50:45;;;;;;;7.50;5.05;;;12.70;99.90;;;;;;4976474;28;20216;-77
2022/05/05 02:55:54;;;;;;;8.77;5.38;;;12.60;99.90;;;;;;4977347;28;20226;-77
2022/05/05 02:58:22;;;;;;;7.20;4.82;;;12.60;99.90;;;;;;4973136;28;20201;-78
2022/05/05 03:00:51;;;;;;;5.97;5.00;;;12.60;99.90;;;;;;4964995;28;20197;-77
2022/05/05 03:03:18;;;;;;;7.70;5.25;;;12.60;99.90;;;;;;4967280;28;20252;-77
2022/05/05 03:05:46;;;;;;;9.98;5.35;;;12.50;99.90;;;;;;4976259;28;20220;-77
2022/05/05 03:08:13;;;;;;;8.07;5.55;;;12.40;99.90;;;;;;4974398;28;20205;-77
2022/05/05 03:10:41;;;;;;;9.55;5.20;;;12.30;99.90;;;;;;4974018;28;20216;-77
2022/05/05 03:13:23;;;;;;;9.27;5.85;;;12.10;99.90;;;;;;4992760;28;20221;-77
2022/05/05 03:15:52;;;;;;;9.77;6.00;;;12.00;99.90;;;;;;4977879;28;20189;-77
2022/05/05 03:18:19;;;;;;;8.95;5.57;;;12.00;99.90;;;;;;4965443;28;20659;-77
2022/05/05 03:20:47;;;;;;;8.55;6.10;;;11.80;99.90;;;;;;4968329;28;20688;-77
2022/05/05 03:23:14;;;;;;;7.95;5.50;;;11.60;99.90;;;;;;4973198;28;20221;-77
2022/05/05 03:25:42;;;;;;;7.47;5.78;;;11.50;99.90;;;;;;4974931;28;20698;-78
2022/05/05 03:28:09;;;;;;;8.98;5.22;;;11.50;99.90;;;;;;4972912;28;20201;-76
2022/05/05 03:30:37;;;;;;;9.05;5.80;;;11.70;99.90;;;;;;4959893;28;20216;-77
2022/05/05 03:33:06;;;;;;;7.13;4.93;;;11.90;99.90;;;;;;4974961;28;20225;-77
2022/05/05 03:35:34;;;;;;;9.35;5.22;;;12.10;99.90;;;;;;4967652;28;20213;-77
2022/05/05 03:38:02;;;;;;;8.45;5.53;;;12.10;99.90;;;;;;4979772;28;20209;-77
2022/05/05 03:40:29;;;;;;;12.45;6.07;;;11.90;99.90;;;;;;4968053;28;20659;-77
2022/05/05 03:42:57;;;;;;;8.40;5.82;;;11.80;99.90;;;;;;4974783;28;20217;-77
2022/05/05 03:45:25;;;;;;;9.90;5.55;;;11.70;99.90;;;;;;4971610;28;20229;-77
2022/05/05 03:47:52;;;;;;;9.10;6.37;;;11.90;99.90;;;;;;4964795;28;20640;-77
2022/05/05 03:50:21;;;;;;;12.15;6.28;;;12.00;99.90;;;;;;4974216;28;20578;-76
2022/05/05 03:52:49;;;;;;;8.98;6.50;;;12.00;99.90;;;;;;4975074;28;20201;-76
2022/05/05 03:55:16;;;;;;;9.00;5.55;;;11.90;99.90;;;;;;4971737;28;20201;-77
2022/05/05 03:57:44;;;;;;;6.47;5.18;;;11.90;99.90;;;;;;4986211;28;20201;-77
2022/05/05 04:00:12;;;;;;;8.23;5.32;;;11.90;99.90;;;;;;4974502;28;20214;-77
2022/05/05 04:02:39;;;;;;;10.65;5.88;;;11.90;99.90;;;;;;4975845;28;20209;-76
2022/05/05 04:05:08;;;;;;;8.18;5.35;;;11.90;99.90;;;;;;4973253;28;20694;-77
2022/05/05 04:07:37;;;;;;;10.43;6.40;;;11.90;99.90;;;;;;4969789;28;20194;-77
2022/05/05 04:10:06;;;;;;;8.18;5.40;;;11.70;99.90;;;;;;4988978;28;20201;-78
2022/05/05 04:12:34;;;;;;;8.90;5.60;;;11.70;99.90;;;;;;4989930;28;20547;-76
2022/05/05 04:15:01;;;;;;;7.75;5.28;;;11.70;99.90;;;;;;4974988;28;20185;-77
2022/05/05 04:17:31;;;;;;;6.93;6.18;;;11.70;99.90;;;;;;4961733;28;20216;-77
2022/05/05 04:19:58;;;;;;;9.43;5.50;;;11.80;99.90;;;;;;4960435;28;20189;-77
2022/05/05 04:22:26;;;;;;;7.63;5.60;;;11.80;99.90;;;;;;4973943;28;20659;-77
2022/05/05 04:24:55;;;;;;;8.52;5.57;;;11.80;99.90;;;;;;4972363;28;20227;-78
2022/05/05 04:27:23;;;;;;;8.53;5.57;;;11.80;99.90;;;;;;4985611;28;20213;-77
2022/05/05 04:29:50;;;;;;;9.00;6.17;;;11.70;99.90;;;;;;4989736;28;20204;-77
2022/05/05 04:32:18;;;;;;;9.70;5.83;;;11.60;99.90;;;;;;4977028;28;20211;-78
2022/05/05 04:34:47;;;;;;;8.23;5.40;;;11.70;99.90;;;;;;4976982;28;20232;-79
2022/05/05 04:37:15;;;;;;;7.65;6.20;;;11.60;99.90;;;;;;4991512;28;20205;-78
2022/05/05 04:39:43;;;;;;;8.30;5.67;;;11.60;99.90;;;;;;4976007;28;20196;-78
2022/05/05 04:42:12;;;;;;;8.27;5.95;;;11.60;99.90;;;;;;4973529;28;20210;-78
2022/05/05 04:44:39;;;;;;;9.05;5.53;;;11.60;99.90;;;;;;4956548;28;20225;-78
2022/05/05 04:47:07;;;;;;;11.27;6.20;;;11.50;99.90;;;;;;4967268;28;20232;-79
2022/05/05 04:49:35;;;;;;;8.70;5.73;;;11.50;99.90;;;;;;4969505;28;20197;-78
2022/05/05 04:52:02;;;;;;;12.30;6.25;;;11.40;99.90;;;;;;4979632;28;20252;-78
2022/05/05 04:54:39;;;;;;;10.87;6.50;;;11.40;99.90;;;;;;4959469;28;20221;-79
2022/05/05 04:57:07;;;;;;;8.57;6.47;;;11.40;99.90;;;;;;4976732;28;20197;-79
2022/05/05 04:59:36;;;;;;;9.33;6.40;;;11.50;99.90;;;;;;4975122;28;20205;-78
2022/05/05 05:02:04;;;;;;;8.40;6.53;;;11.30;99.90;;;;;;4966414;28;20209;-80
2022/05/05 05:04:32;;;;;;;11.17;7.13;;;11.10;99.90;;;;;;4969417;28;20247;-79
2022/05/05 05:06:59;;;;;;;11.93;6.55;;;11.10;99.90;;;;;;4977258;28;20224;-79
2022/05/05 05:09:27;;;;;;;9.87;6.37;;;11.40;99.90;;;;;;4975952;28;20710;-79
2022/05/05 05:11:54;;;;;;;8.13;6.53;;;11.50;99.90;;;;;;4974980;28;20204;-80
2022/05/05 05:14:22;;;;;;;11.20;6.63;;;11.50;99.90;;;;;;4967184;28;20213;-79
2022/05/05 05:16:51;;;;;;;11.27;6.78;;;11.50;99.90;;;;;;4984609;28;20205;-79
2022/05/05 05:19:19;;;;;;;9.82;6.00;;;11.40;99.90;;;;;;4975920;28;20202;-80
2022/05/05 05:21:47;;;;;;;10.00;7.07;;;11.60;99.90;;;;;;4976375;28;20197;-80
2022/05/05 05:24:15;;;;;;;10.83;6.83;;;11.70;99.90;;;;;;4983743;28;20229;-79
2022/05/05 05:26:43;;;;;;;11.13;7.03;;;11.70;99.90;;;;;;4968752;28;20222;-79
2022/05/05 05:29:10;;;;;;;10.65;7.03;;;11.90;99.90;;;;;;4976099;28;20209;-79
2022/05/05 05:31:38;;;;;;;8.55;6.90;;;11.70;99.90;;;;;;4977202;28;20217;-79
2022/05/05 05:34:07;;;;;;;11.40;7.25;;;11.60;99.90;;;;;;4975769;28;20233;-79
2022/05/05 05:36:35;;;;;;;11.07;7.75;;;11.50;99.90;;;;;;4975589;28;20200;-79
2022/05/05 05:39:02;;;;;;;10.85;7.38;;;11.60;99.90;;;;;;4991951;28;20651;-80
2022/05/05 05:41:30;;;;;;;14.35;8.52;;;11.90;99.90;;;;;;4975418;28;20201;-78
2022/05/05 05:43:57;;;;;;;13.63;7.93;;;11.90;99.90;;;;;;4976525;28;20215;-79
2022/05/05 05:46:25;;;;;;;12.82;8.30;;;12.20;99.90;;;;;;4973340;28;20701;-79
2022/05/05 05:48:53;;;;;;;12.40;8.73;;;12.50;99.90;;;;;;4971887;28;20205;-78
2022/05/05 05:51:22;;;;;;;13.35;8.57;;;12.70;99.90;;;;;;4970446;28;20197;-78
2022/05/05 05:53:52;;;;;;;14.27;9.18;;;12.80;99.90;;;;;;4967125;28;20602;-78
2022/05/05 05:56:20;;;;;;;12.20;8.15;;;12.90;99.90;;;;;;4972623;28;20204;-78
2022/05/05 05:58:47;;;;;;;13.77;8.15;;;13.10;99.90;;;;;;4972822;28;20197;-78
2022/05/05 06:01:15;;;;;;;12.00;9.25;;;13.10;99.90;;;;;;4971608;28;20690;-78
2022/05/05 06:03:53;;;;;;;13.80;9.57;;;13.00;99.90;;;;;;4986900;28;20231;-78
2022/05/05 06:06:23;;;;;;;10.55;8.80;;;13.10;99.90;;;;;;4972750;28;20213;-80
2022/05/05 06:08:57;;;;;;;14.13;8.25;;;13.10;99.90;;;;;;4974030;28;20212;-79
2022/05/05 06:11:24;;;;;;;11.45;9.00;;;13.10;99.90;;;;;;4990582;28;20198;-79
2022/05/05 06:13:52;;;;;;;17.92;10.40;;;13.30;99.90;;;;;;4973809;28;20247;-80
2022/05/05 06:16:20;;;;;;;14.07;10.70;;;13.40;99.90;;;;;;4975756;28;20193;-81
2022/05/05 06:18:48;;;;;;;19.63;11.68;;;13.60;99.90;;;;;;4981748;28;20205;-80
2022/05/05 06:21:16;;;;;;;18.77;11.85;;;13.70;99.90;;;;;;4976134;28;20560;-80
2022/05/05 06:23:45;;;;;;;19.52;12.07;;;13.70;99.90;;;;;;4977870;28;20227;-80
2022/05/05 06:26:12;;;;;;;15.43;12.38;;;13.90;99.90;;;;;;4969893;28;20233;-80
2022/05/05 06:28:40;;;;;;;16.33;11.57;;;14.00;99.90;;;;;;4977741;28;20189;-80
2022/05/05 06:31:07;;;;;;;19.10;12.02;;;14.00;99.90;;;;;;4990804;28;20534;-80
2022/05/05 06:33:38;;;;;;;13.30;10.65;;;14.10;99.70;;;;;;4977462;28;20220;-80
2022/05/05 06:36:06;;;;;;;16.30;11.52;;;14.20;98.60;;;;;;4977212;28;20558;-80
2022/05/05 06:38:38;;;;;;;14.85;10.68;;;14.10;98.90;;;;;;4961866;28;20216;-80
2022/05/05 06:41:08;;;;;;;13.75;11.15;;;14.10;99.00;;;;;;4975990;28;20200;-80
2022/05/05 06:43:38;;;;;;;18.90;11.27;;;14.00;99.80;;;;;;4977109;28;20225;-80
2022/05/05 06:46:06;;;;;;;17.98;12.85;;;14.30;99.50;;;;;;4970056;28;20193;-81
2022/05/05 06:48:33;;;;;;;13.38;10.90;;;14.40;99.00;;;;;;4989508;28;20202;-80
2022/05/05 06:51:01;;;;;;;15.40;11.05;;;14.40;98.50;;;;;;4977849;28;20649;-80
2022/05/05 06:53:29;;;;;;;13.40;9.70;;;14.30;98.30;;;;;;4969907;28;20219;-80
2022/05/05 06:55:58;;;;;;;14.48;9.70;;;14.40;97.80;;;;;;4984504;28;20209;-81
2022/05/05 06:58:27;;;;;;;12.38;9.70;;;14.60;97.50;;;;;;4988699;28;20190;-80
2022/05/05 07:03:40;;;;;;;14.55;9.23;;;15.00;97.40;;;;;;4965323;28;20217;-80
2022/05/05 07:06:10;;;;;;;10.98;8.10;;;15.10;96.80;;;;;;4965836;28;20200;-80
2022/05/05 07:11:22;;;;;;;13.93;8.68;;;15.40;94.10;;;;;;4975917;28;20201;-80
2022/05/05 07:13:51;;;;;;;11.75;8.00;;;15.60;93.90;;;;;;4975971;28;20232;-80
2022/05/05 07:16:19;;;;;;;13.00;8.05;;;15.70;92.60;;;;;;4976099;28;20205;-80
2022/05/05 07:18:49;;;;;;;9.57;7.10;;;15.90;91.70;;;;;;4992015;28;20205;-80
2022/05/05 07:21:17;;;;;;;10.82;6.32;;;16.00;91.00;;;;;;4992008;28;20554;-80
2022/05/05 07:23:44;;;;;;;11.38;6.85;;;16.00;87.10;;;;;;4975816;28;20217;-81
2022/05/05 07:26:14;;;;;;;12.40;7.75;;;15.90;88.10;;;;;;4990722;28;20209;-80
2022/05/05 07:28:41;;;;;;;9.20;6.28;;;15.90;88.00;;;;;;4991496;28;20217;-80
2022/05/05 07:31:10;;;;;;;12.88;7.38;;;16.00;87.00;;;;;;4983536;28;20205;-80
2022/05/05 07:33:38;;;;;;;14.00;7.50;;;16.00;86.80;;;;;;4970525;28;20218;-80
2022/05/05 07:36:07;;;;;;;9.45;6.53;;;15.90;84.90;;;;;;4978665;28;20236;-80
2022/05/05 07:38:35;;;;;;;11.77;7.05;;;16.00;84.30;;;;;;4982442;28;20208;-80
2022/05/05 07:41:03;;;;;;;11.85;6.53;;;16.10;83.90;;;;;;4975244;28;20197;-80
2022/05/05 07:43:31;;;;;;;8.02;6.40;;;16.20;83.60;;;;;;4975384;28;20228;-80
2022/05/05 07:45:58;;;;;;;8.82;6.95;;;16.20;84.40;;;;;;4974698;28;20663;-81
2022/05/05 07:48:29;;;;;;;14.90;7.40;;;16.10;84.30;;;;;;4969462;28;20201;-81
2022/05/05 07:50:58;;;;;;;9.80;7.22;;;16.20;84.40;;;;;;4979494;28;20197;-80
2022/05/05 07:53:26;;;;;;;10.15;6.95;;;16.10;82.30;;;;;;4975033;28;20221;-80
2022/05/05 07:55:53;;;;;;;9.13;6.10;;;16.10;83.10;;;;;;4974504;28;20229;-80
2022/05/05 07:58:21;;;;;;;12.48;7.22;;;16.30;82.60;;;;;;4965773;28;20193;-81
2022/05/05 08:00:49;;;;;;;11.38;7.18;;;16.40;82.30;;;;;;4969825;28;20205;-80
2022/05/05 08:03:18;;;;;;;11.02;7.88;;;16.30;82.40;;;;;;4989979;28;20244;-80
2022/05/05 08:05:47;;;;;;;14.10;8.35;;;16.30;82.80;;;;;;4974370;28;20205;-80
2022/05/05 08:08:14;;;;;;;11.82;7.65;;;16.40;83.60;;;;;;4988269;28;20660;-80
2022/05/05 08:10:42;;;;;;;12.63;8.48;;;16.20;85.30;;;;;;4962445;28;20201;-81
2022/05/05 08:13:10;;;;;;;13.95;8.15;;;16.10;85.20;;;;;;4963902;28;20222;-81
2022/05/05 08:15:38;;;;;;;17.13;9.40;;;16.20;86.30;;;;;;4974063;28;20679;-80
2022/05/05 08:18:06;;;;;;;16.10;10.18;;;16.30;86.40;;;;;;4973554;28;20216;-80
2022/05/05 08:20:34;;;;;;;18.08;9.68;;;16.20;86.50;;;;;;4974960;28;20686;-80
2022/05/05 08:23:03;;;;;;;16.65;10.05;;;16.20;86.70;;;;;;4991762;28;20599;-80
2022/05/05 08:28:31;;;;;;;16.52;10.45;;;16.40;87.20;;;;;;4961521;28;20225;-80
2022/05/05 08:30:59;;;;;;;18.85;12.10;;;16.40;85.60;;;;;;4976228;28;20201;-80
2022/05/05 08:33:30;;;;;;;17.77;11.75;;;16.30;86.00;;;;;;4985927;28;20579;-79
2022/05/05 08:35:59;;;;;;;18.63;11.40;;;16.30;88.10;;;;;;4984810;28;20212;-81
2022/05/05 08:38:28;;;;;;;18.13;10.02;;;16.40;88.00;;;;;;4994956;28;20197;-80
2022/05/05 08:40:56;;;;;;;17.70;10.68;;;16.40;86.30;;;;;;4976333;28;20193;-80
2022/05/05 08:43:24;;;;;;;17.92;10.45;;;16.50;85.70;;;;;;4990448;28;20227;-80
2022/05/05 08:45:53;;;;;;;18.00;10.80;;;16.30;86.50;;;;;;4989780;28;20206;-80
2022/05/05 08:48:44;;;;;;;16.00;11.23;;;16.50;87.00;;;;;;4973952;28;20224;-80
2022/05/05 08:51:17;;;;;;;17.00;11.52;;;16.50;87.80;;;;;;4973789;28;20196;-80
2022/05/05 08:53:53;;;;;;;19.42;12.13;;;16.50;87.30;;;;;;4967239;28;20213;-80
2022/05/05 08:56:21;;;;;;;19.58;12.50;;;16.50;87.60;;;;;;4971290;28;20203;-80
2022/05/05 08:58:48;;;;;;;17.23;12.63;;;16.50;86.60;;;;;;4966906;28;20181;-80
2022/05/05 09:01:16;;;;;;;18.48;11.65;;;16.60;87.70;;;;;;4973551;28;20212;-80
2022/05/05 09:03:44;;;;;;;21.27;13.25;;;16.70;87.90;;;;;;4973515;28;20220;-80
2022/05/05 09:06:11;;;;;;;19.25;14.70;;;16.70;87.60;;;;;;4974486;28;20196;-80
2022/05/05 09:08:39;;;;;;;19.40;13.70;;;16.50;88.00;;;;;;4971100;28;20224;-80
2022/05/05 09:11:08;;;;;;;20.80;12.52;;;16.70;88.30;;;;;;4973435;28;20205;-80
2022/05/05 09:13:37;;;;;;;21.55;13.20;;;16.80;88.30;;;;;;4972705;28;20240;-80
2022/05/05 09:16:07;;;;;;;19.80;14.07;;;16.80;88.10;;;;;;4975304;28;20558;-81
2022/05/05 09:18:36;;;;;;;20.20;13.80;;;16.70;89.00;;;;;;4972776;28;20201;-80
2022/05/05 09:21:05;;;;;;;21.08;14.38;;;16.80;89.60;;;;;;4974350;28;20197;-80
2022/05/05 09:23:36;;;;;;;23.25;14.40;;;16.90;88.70;;;;;;4972085;28;20220;-80
2022/05/05 09:26:05;;;;;;;21.45;13.80;;;16.90;87.60;;;;;;4969759;28;20205;-80
2022/05/05 09:28:36;;;;;;;19.25;13.55;;;17.00;86.90;;;;;;4973025;28;20228;-80
2022/05/05 09:31:09;;;;;;;22.13;14.57;;;17.00;87.60;;;;;;4961584;28;20197;-81
2022/05/05 09:33:45;;;;;;;23.30;13.73;;;16.90;87.60;;;;;;4970407;28;20224;-80
2022/05/05 09:36:14;;;;;;;25.40;15.48;;;16.90;87.90;;;;;;4974434;28;20212;-80
2022/05/05 09:38:53;;;;;;;20.98;14.95;;;17.00;85.90;;;;;;4972480;28;20193;-80
2022/05/05 09:41:21;;;;;;;23.90;14.40;;;16.80;86.70;;;;;;4974684;28;20549;-80
2022/05/05 09:43:53;;;;;;;20.35;13.57;;;16.80;88.10;;;;;;4970793;28;20585;-80
2022/05/05 09:46:36;;;;;;;20.60;13.27;;;17.00;88.60;;;;;;4970798;28;20205;-80
2022/05/05 09:49:09;;;;;;;20.80;13.30;;;17.30;90.20;;;;;;4973069;28;20216;-80
2022/05/05 09:51:39;;;;;;;21.88;13.85;;;17.50;89.90;;;;;;4977948;28;20204;-79
2022/05/05 09:59:48;;;;;;;19.05;13.38;;;17.60;85.90;;;;;;4971085;28;20192;-79
2022/05/05 10:04:00;;;;;;;20.52;13.05;;;17.50;88.00;;;;;;4968042;28;20217;-79
2022/05/05 10:05:17;;;;;;;15.57;11.90;;;17.70;88.30;;;;;;4974959;28;20209;-79
2022/05/05 10:07:48;;;;;;;15.43;11.48;;;17.90;90.00;;;;;;4975283;28;20560;-79
2022/05/05 10:10:17;;;;;;;17.52;12.95;;;18.00;86.80;;;;;;4992191;28;20213;-79
2022/05/05 10:12:46;;;;;;;17.17;12.40;;;17.80;84.10;;;;;;4992292;28;20667;-79
2022/05/05 10:15:16;;;;;;;17.63;13.05;;;18.00;84.30;;;;;;4976273;28;20533;-79
2022/05/05 10:17:45;;;;;;;18.83;12.63;;;17.70;83.50;;;;;;4975536;28;20225;-80
2022/05/05 10:20:14;;;;;;;15.45;11.70;;;18.00;83.10;;;;;;4975916;28;20201;-79
2022/05/05 10:22:51;;;;;;;18.17;11.63;;;18.10;84.50;;;;;;4975566;28;20200;-79
2022/05/05 10:25:23;;;;;;;17.45;11.90;;;18.50;83.30;;;;;;4972456;28;20670;-79
2022/05/05 10:27:51;;;;;;;14.40;11.10;;;18.70;89.20;;;;;;4974455;28;20209;-79
2022/05/05 10:30:34;;;;;;;14.10;10.88;;;18.50;90.00;;;;;;4969869;28;20201;-79
2022/05/05 10:33:02;;;;;;;15.63;12.23;;;18.70;84.10;;;;;;4971670;28;20216;-79
2022/05/05 10:35:38;;;;;;;15.88;12.07;;;18.80;82.20;;;;;;4976001;28;20189;-79
2022/05/05 10:38:41;;;;;;;15.50;11.70;;;18.50;80.70;;;;;;4974048;28;20196;-79
2022/05/05 10:41:36;;;;;;;14.45;10.35;;;18.40;82.00;;;;;;4967431;28;20543;-79
2022/05/05 10:44:24;;;;;;;14.60;10.88;;;18.30;81.40;;;;;;4963474;28;20229;-80
2022/05/05 10:47:01;;;;;;;15.68;10.85;;;18.20;80.60;;;;;;4964127;28;20201;-79
2022/05/05 10:49:46;;;;;;;14.90;9.80;;;18.00;81.20;;;;;;4990503;28;20224;-80
2022/05/05 10:52:31;;;;;;;12.00;9.70;;;18.20;80.60;;;;;;4982614;28;20193;-79
2022/05/05 10:55:23;;;;;;;12.82;9.35;;;18.30;79.80;;;;;;4976016;28;20225;-79
2022/05/05 10:57:51;;;;;;;15.82;11.10;;;18.40;81.10;;;;;;4973015;28;20194;-79
2022/05/05 11:00:19;;;;;;;15.27;10.98;;;18.60;80.60;;;;;;4963612;28;20205;-79
2022/05/05 11:03:15;;;;;;;16.58;11.68;;;19.00;78.40;;;;;;4962457;28;20201;-79
2022/05/05 11:05:44;;;;;;;15.80;11.13;;;18.80;77.30;;;;;;4970920;28;20197;-79
2022/05/05 11:08:33;;;;;;;11.55;10.00;;;18.70;80.40;;;;;;4974440;28;20216;-79
2022/05/05 11:14:01;;;;;;;12.63;9.38;;;19.60;82.70;;;;;;4957461;28;20217;-80
2022/05/05 11:22:19;;;;;;;9.75;7.38;;;19.00;76.20;;;;;;4973809;28;20205;-79
2022/05/05 11:24:48;;;;;;;10.95;8.65;;;18.80;75.30;;;;;;4975459;28;20225;-80
2022/05/05 11:27:18;;;;;;;10.82;8.80;;;18.60;75.40;;;;;;4975465;28;20197;-80
2022/05/05 11:29:50;;;;;;;10.98;7.97;;;18.50;75.30;;;;;;4975865;28;20725;-79
2022/05/05 11:32:18;;;;;;;9.95;7.68;;;18.50;75.80;;;;;;4975331;28;20212;-79
2022/05/05 11:34:49;;;;;;;10.30;8.02;;;18.60;75.90;;;;;;4969041;28;20221;-79
2022/05/05 11:37:17;;;;;;;8.32;6.82;;;18.90;74.20;;;;;;4990556;23;20229;-82
2022/05/05 11:39:48;;;;;;;10.07;7.30;;;19.30;73.90;;;;;;4971874;28;20209;-82
2022/05/05 11:42:16;;;;;;;9.77;7.88;;;19.60;73.00;;;;;;4963996;28;20213;-82
2022/05/05 11:44:43;;;;;;;9.50;7.50;;;20.00;72.50;;;;;;4955222;29;20214;-82
2022/05/05 11:47:12;;;;;;;9.73;6.95;;;20.40;70.80;;;;;;4954583;29;20225;-82
2022/05/05 11:49:43;;;;;;;8.60;7.05;;;20.10;69.40;;;;;;4956121;28;20218;-82
2022/05/05 11:52:16;;;;;;;8.35;7.43;;;19.60;69.00;;;;;;4964389;28;20648;-82
2022/05/05 11:54:48;;;;;;;9.60;6.50;;;19.30;69.20;;;;;;4947916;28;20213;-82
2022/05/05 11:57:32;;;;;;;6.90;5.63;;;19.30;68.10;;;;;;4954360;28;20557;-82
2022/05/05 12:02:46;;;;;;;6.53;5.82;;;19.10;65.40;;;;;;4966383;28;20193;-82
2022/05/05 12:05:14;;;;;;;6.65;5.22;;;19.20;67.40;;;;;;4972051;28;20198;-82
2022/05/05 12:07:44;;;;;;;7.75;5.68;;;19.50;68.40;;;;;;4956511;29;20550;-82
2022/05/05 12:10:15;;;;;;;7.72;5.57;;;19.20;68.50;;;;;;4954071;28;20221;-82
2022/05/05 12:12:44;;;;;;;6.82;5.00;;;19.00;73.10;;;;;;4960727;28;20202;-82
2022/05/05 12:15:13;;;;;;;6.88;5.32;;;19.10;75.20;;;;;;4955954;29;20336;-82
2022/05/05 12:17:42;;;;;;;7.03;5.40;;;19.20;73.20;;;;;;4970245;28;20208;-82
2022/05/05 12:20:12;;;;;;;9.70;6.10;;;19.30;73.40;;;;;;4967283;28;20198;-82
2022/05/05 12:22:42;;;;;;;6.10;5.43;;;19.40;72.40;;;;;;4970618;28;20201;-82
2022/05/05 12:25:14;;;;;;;7.45;6.07;;;19.50;72.20;;;;;;4970740;28;20201;-82
2022/05/05 12:27:44;;;;;;;8.93;6.05;;;19.30;71.60;;;;;;4969539;28;20197;-82
2022/05/05 12:30:13;;;;;;;7.60;5.13;;;19.20;71.40;;;;;;4969328;28;20228;-82
2022/05/05 12:32:50;;;;;;;8.32;6.28;;;19.60;69.60;;;;;;4940378;28;20206;-82
2022/05/05 12:35:28;;;;;;;8.00;5.85;;;19.40;68.70;;;;;;4952823;28;20209;-82
2022/05/05 12:37:58;;;;;;;10.70;6.63;;;19.60;70.00;;;;;;4946580;29;20198;-82
2022/05/05 12:40:26;;;;;;;7.97;5.22;;;19.50;70.30;;;;;;4960510;28;20193;-82
2022/05/05 12:43:01;;;;;;;6.90;5.45;;;19.60;71.50;;;;;;4955675;29;20197;-82
2022/05/05 12:45:32;;;;;;;6.45;4.93;;;19.80;67.50;;;;;;4955512;28;20232;-82
2022/05/05 12:48:01;;;;;;;8.50;5.20;;;20.00;66.10;;;;;;4947792;29;20202;-82
2022/05/05 12:50:31;;;;;;;8.27;5.43;;;20.00;65.90;;;;;;4966457;28;20232;-82
2022/05/05 13:01:23;;;;;;;4.90;4.38;;;19.60;64.00;;;;;;4967385;28;20194;-82
2022/05/05 13:03:52;;;;;;;8.68;4.78;;;19.70;66.60;;;;;;4969809;28;20204;-82
2022/05/05 13:06:20;;;;;;;6.95;4.43;;;19.30;68.40;;;;;;4967033;28;20225;-82
2022/05/05 13:08:49;;;;;;;4.60;4.10;;;19.30;71.30;;;;;;4951678;28;20218;-82
2022/05/05 13:11:17;;;;;;;7.60;5.97;;;19.40;68.10;;;;;;4965683;28;20218;-82
2022/05/05 13:13:45;;;;;;;7.85;5.40;;;19.20;68.00;;;;;;4964889;28;20860;-82
2022/05/05 13:16:13;;;;;;;7.95;5.40;;;19.30;67.40;;;;;;4952574;28;20214;-82
2022/05/05 13:18:40;;;;;;;7.50;4.85;;;19.10;68.80;;;;;;4970036;28;20202;-82
2022/05/05 13:21:08;;;;;;;5.97;4.97;;;19.20;68.80;;;;;;4945311;28;20565;-82
2022/05/05 13:23:36;;;;;;;7.88;5.18;;;19.10;68.50;;;;;;4957547;28;20217;-82
2022/05/05 13:26:06;;;;;;;7.65;5.38;;;19.30;69.30;;;;;;4956972;28;20703;-82
2022/05/05 13:28:33;;;;;;;6.80;5.03;;;19.40;69.20;;;;;;4956898;28;20202;-82
2022/05/05 13:31:01;;;;;;;6.95;5.82;;;19.30;70.60;;;;;;4964719;28;20233;-82
2022/05/05 13:33:29;;;;;;;10.70;6.32;;;19.50;71.00;;;;;;4980378;28;20197;-82
2022/05/05 13:35:57;;;;;;;8.25;6.00;;;19.20;70.50;;;;;;4978389;28;20225;-80
2022/05/05 13:38:25;;;;;;;6.72;5.82;;;19.40;71.00;;;;;;4975876;28;20290;-80
2022/05/05 13:40:56;;;;;;;7.43;6.13;;;19.60;70.50;;;;;;4973308;28;20202;-80